sensor_id;sensor_type;location;lat;lon;timestamp;P1;durP1;ratioP1;P2;durP2;ratioP2
67442;SDS011;54311;51.726;5.154;2022-12-18T00:01:24;72.60;;;39.10;;
67442;SDS011;54311;51.726;5.154;2022-12-18T00:03:51;79.28;;;39.10;;
67442;SDS011;54311;51.726;5.154;2022-12-18T00:06:17;73.13;;;39.25;;
67442;SDS011;54311;51.726;5.154;2022-12-18T00:08:43;62.95;;;36.53;;
67442;SDS011;54311;51.726;5.154;2022-12-18T00:11:13;68.90;;;37.70;;
67442;SDS011;54311;51.726;5.154;2022-12-18T00:13:40;72.15;;;39.03;;
67442;SDS011;54311;51.726;5.154;2022-12-18T00:16:07;69.55;;;36.85;;
67442;SDS011;54311;51.726;5.154;2022-12-18T00:18:34;67.75;;;37.35;;
67442;SDS011;54311;51.726;5.154;2022-12-18T00:21:00;73.35;;;38.22;;
67442;SDS011;54311;51.726;5.154;2022-12-18T00:23:27;73.85;;;38.17;;
67442;SDS011;54311;51.726;5.154;2022-12-18T00:25:53;68.07;;;38.33;;
67442;SDS011;54311;51.726;5.154;2022-12-18T00:28:18;64.38;;;35.50;;
67442;SDS011;54311;51.726;5.154;2022-12-18T00:30:43;70.30;;;37.58;;
67442;SDS011;54311;51.726;5.154;2022-12-18T00:33:09;71.40;;;38.65;;
67442;SDS011;54311;51.726;5.154;2022-12-18T00:35:34;69.13;;;35.45;;
67442;SDS011;54311;51.726;5.154;2022-12-18T00:37:59;65.55;;;36.53;;
67442;SDS011;54311;51.726;5.154;2022-12-18T00:40:25;72.70;;;36.42;;
67442;SDS011;54311;51.726;5.154;2022-12-18T00:42:50;63.38;;;37.17;;
67442;SDS011;54311;51.726;5.154;2022-12-18T00:45:28;70.28;;;38.05;;
67442;SDS011;54311;51.726;5.154;2022-12-18T00:47:54;64.85;;;37.35;;
67442;SDS011;54311;51.726;5.154;2022-12-18T00:50:21;65.47;;;37.13;;
67442;SDS011;54311;51.726;5.154;2022-12-18T00:52:47;63.33;;;37.20;;
67442;SDS011;54311;51.726;5.154;2022-12-18T00:55:13;67.47;;;36.60;;
67442;SDS011;54311;51.726;5.154;2022-12-18T00:57:38;64.20;;;37.50;;
67442;SDS011;54311;51.726;5.154;2022-12-18T01:00:05;71.38;;;38.00;;
67442;SDS011;54311;51.726;5.154;2022-12-18T01:02:32;68.53;;;37.90;;
67442;SDS011;54311;51.726;5.154;2022-12-18T01:04:57;67.90;;;37.53;;
67442;SDS011;54311;51.726;5.154;2022-12-18T01:07:22;66.07;;;37.30;;
67442;SDS011;54311;51.726;5.154;2022-12-18T01:09:48;68.95;;;36.90;;
67442;SDS011;54311;51.726;5.154;2022-12-18T01:12:13;65.07;;;37.28;;
67442;SDS011;54311;51.726;5.154;2022-12-18T01:14:38;70.72;;;37.10;;
67442;SDS011;54311;51.726;5.154;2022-12-18T01:17:04;70.22;;;38.55;;
67442;SDS011;54311;51.726;5.154;2022-12-18T01:19:29;69.53;;;36.38;;
67442;SDS011;54311;51.726;5.154;2022-12-18T01:21:55;73.63;;;39.85;;
67442;SDS011;54311;51.726;5.154;2022-12-18T01:24:20;63.88;;;35.90;;
67442;SDS011;54311;51.726;5.154;2022-12-18T01:26:46;64.63;;;35.97;;
67442;SDS011;54311;51.726;5.154;2022-12-18T01:29:11;63.47;;;35.65;;
67442;SDS011;54311;51.726;5.154;2022-12-18T01:31:36;65.20;;;37.70;;
67442;SDS011;54311;51.726;5.154;2022-12-18T01:34:02;68.70;;;36.42;;
67442;SDS011;54311;51.726;5.154;2022-12-18T01:36:33;67.30;;;38.78;;
67442;SDS011;54311;51.726;5.154;2022-12-18T01:39:00;63.55;;;34.83;;
67442;SDS011;54311;51.726;5.154;2022-12-18T01:41:28;62.53;;;36.70;;
67442;SDS011;54311;51.726;5.154;2022-12-18T01:52:47;67.25;;;36.55;;
67442;SDS011;54311;51.726;5.154;2022-12-18T01:55:16;67.93;;;38.13;;
67442;SDS011;54311;51.726;5.154;2022-12-18T01:57:43;63.88;;;36.15;;
67442;SDS011;54311;51.726;5.154;2022-12-18T02:00:10;70.57;;;39.22;;
67442;SDS011;54311;51.726;5.154;2022-12-18T02:02:38;60.00;;;36.88;;
67442;SDS011;54311;51.726;5.154;2022-12-18T02:05:05;64.68;;;36.38;;
67442;SDS011;54311;51.726;5.154;2022-12-18T02:10:03;64.95;;;35.45;;
67442;SDS011;54311;51.726;5.154;2022-12-18T02:12:43;64.28;;;37.45;;
67442;SDS011;54311;51.726;5.154;2022-12-18T02:15:17;62.65;;;34.22;;
67442;SDS011;54311;51.726;5.154;2022-12-18T02:17:52;57.65;;;34.40;;
67442;SDS011;54311;51.726;5.154;2022-12-18T02:20:32;62.85;;;36.17;;
67442;SDS011;54311;51.726;5.154;2022-12-18T02:28:33;61.00;;;32.92;;
67442;SDS011;54311;51.726;5.154;2022-12-18T02:31:01;61.30;;;34.88;;
67442;SDS011;54311;51.726;5.154;2022-12-18T02:33:29;63.80;;;34.30;;
67442;SDS011;54311;51.726;5.154;2022-12-18T02:35:55;59.78;;;33.17;;
67442;SDS011;54311;51.726;5.154;2022-12-18T02:38:22;56.03;;;34.05;;
67442;SDS011;54311;51.726;5.154;2022-12-18T02:40:48;58.90;;;33.90;;
67442;SDS011;54311;51.726;5.154;2022-12-18T02:43:14;58.47;;;34.00;;
67442;SDS011;54311;51.726;5.154;2022-12-18T02:45:47;55.15;;;34.78;;
67442;SDS011;54311;51.726;5.154;2022-12-18T02:48:15;56.58;;;32.53;;
67442;SDS011;54311;51.726;5.154;2022-12-18T02:50:48;61.17;;;34.10;;
67442;SDS011;54311;51.726;5.154;2022-12-18T02:53:29;56.58;;;33.17;;
67442;SDS011;54311;51.726;5.154;2022-12-18T03:01:34;61.38;;;34.85;;
67442;SDS011;54311;51.726;5.154;2022-12-18T03:06:53;55.28;;;31.05;;
67442;SDS011;54311;51.726;5.154;2022-12-18T03:09:30;57.30;;;33.50;;
67442;SDS011;54311;51.726;5.154;2022-12-18T03:12:18;54.88;;;33.25;;
67442;SDS011;54311;51.726;5.154;2022-12-18T03:15:35;57.63;;;33.47;;
67442;SDS011;54311;51.726;5.154;2022-12-18T03:17:41;55.38;;;32.47;;
67442;SDS011;54311;51.726;5.154;2022-12-18T03:20:11;52.83;;;32.38;;
67442;SDS011;54311;51.726;5.154;2022-12-18T03:22:38;56.33;;;31.90;;
67442;SDS011;54311;51.726;5.154;2022-12-18T03:25:05;48.60;;;30.23;;
67442;SDS011;54311;51.726;5.154;2022-12-18T03:27:31;53.13;;;31.35;;
67442;SDS011;54311;51.726;5.154;2022-12-18T03:30:03;50.10;;;30.63;;
67442;SDS011;54311;51.726;5.154;2022-12-18T03:35:26;48.30;;;31.55;;
67442;SDS011;54311;51.726;5.154;2022-12-18T03:37:53;49.85;;;29.90;;
67442;SDS011;54311;51.726;5.154;2022-12-18T03:40:20;53.08;;;32.83;;
67442;SDS011;54311;51.726;5.154;2022-12-18T03:42:51;46.72;;;28.40;;
67442;SDS011;54311;51.726;5.154;2022-12-18T03:45:23;46.33;;;30.30;;
67442;SDS011;54311;51.726;5.154;2022-12-18T03:48:05;46.05;;;29.98;;
67442;SDS011;54311;51.726;5.154;2022-12-18T03:55:57;50.35;;;28.55;;
67442;SDS011;54311;51.726;5.154;2022-12-18T03:58:24;43.03;;;27.65;;
67442;SDS011;54311;51.726;5.154;2022-12-18T04:00:51;45.10;;;28.67;;
67442;SDS011;54311;51.726;5.154;2022-12-18T04:03:18;52.30;;;31.00;;
67442;SDS011;54311;51.726;5.154;2022-12-18T04:05:44;46.80;;;30.42;;
67442;SDS011;54311;51.726;5.154;2022-12-18T04:08:11;49.15;;;28.63;;
67442;SDS011;54311;51.726;5.154;2022-12-18T04:10:37;47.83;;;29.95;;
67442;SDS011;54311;51.726;5.154;2022-12-18T04:13:02;49.65;;;30.58;;
67442;SDS011;54311;51.726;5.154;2022-12-18T04:15:28;43.38;;;29.27;;
67442;SDS011;54311;51.726;5.154;2022-12-18T04:17:53;46.47;;;30.00;;
67442;SDS011;54311;51.726;5.154;2022-12-18T04:20:18;47.45;;;29.48;;
67442;SDS011;54311;51.726;5.154;2022-12-18T04:22:44;50.50;;;29.77;;
67442;SDS011;54311;51.726;5.154;2022-12-18T04:25:12;42.67;;;28.15;;
67442;SDS011;54311;51.726;5.154;2022-12-18T04:27:38;47.97;;;30.30;;
67442;SDS011;54311;51.726;5.154;2022-12-18T04:30:05;45.65;;;29.65;;
67442;SDS011;54311;51.726;5.154;2022-12-18T04:32:30;50.20;;;30.67;;
67442;SDS011;54311;51.726;5.154;2022-12-18T04:34:56;53.80;;;31.05;;
67442;SDS011;54311;51.726;5.154;2022-12-18T04:37:21;40.78;;;26.45;;
67442;SDS011;54311;51.726;5.154;2022-12-18T04:39:46;40.22;;;27.63;;
67442;SDS011;54311;51.726;5.154;2022-12-18T04:42:12;48.85;;;30.10;;
67442;SDS011;54311;51.726;5.154;2022-12-18T04:44:37;45.28;;;29.15;;
67442;SDS011;54311;51.726;5.154;2022-12-18T04:47:03;44.17;;;28.10;;
67442;SDS011;54311;51.726;5.154;2022-12-18T04:49:28;43.42;;;27.42;;
67442;SDS011;54311;51.726;5.154;2022-12-18T04:51:53;43.75;;;29.50;;
67442;SDS011;54311;51.726;5.154;2022-12-18T04:54:19;43.55;;;28.65;;
67442;SDS011;54311;51.726;5.154;2022-12-18T04:56:44;38.17;;;27.15;;
67442;SDS011;54311;51.726;5.154;2022-12-18T04:59:09;41.78;;;28.38;;
67442;SDS011;54311;51.726;5.154;2022-12-18T05:01:35;40.83;;;27.83;;
67442;SDS011;54311;51.726;5.154;2022-12-18T05:04:01;40.75;;;27.77;;
67442;SDS011;54311;51.726;5.154;2022-12-18T05:06:26;38.10;;;26.60;;
67442;SDS011;54311;51.726;5.154;2022-12-18T05:08:53;40.15;;;27.52;;
67442;SDS011;54311;51.726;5.154;2022-12-18T05:11:18;44.00;;;28.40;;
67442;SDS011;54311;51.726;5.154;2022-12-18T05:13:44;39.83;;;26.83;;
67442;SDS011;54311;51.726;5.154;2022-12-18T05:16:09;44.25;;;28.35;;
67442;SDS011;54311;51.726;5.154;2022-12-18T05:18:35;42.78;;;27.85;;
67442;SDS011;54311;51.726;5.154;2022-12-18T05:21:00;39.72;;;27.08;;
67442;SDS011;54311;51.726;5.154;2022-12-18T05:23:26;38.22;;;26.40;;
67442;SDS011;54311;51.726;5.154;2022-12-18T05:25:53;40.35;;;26.80;;
67442;SDS011;54311;51.726;5.154;2022-12-18T05:28:22;41.15;;;28.00;;
67442;SDS011;54311;51.726;5.154;2022-12-18T05:30:49;42.22;;;27.17;;
67442;SDS011;54311;51.726;5.154;2022-12-18T05:33:15;36.63;;;26.48;;
67442;SDS011;54311;51.726;5.154;2022-12-18T05:35:41;42.28;;;26.60;;
67442;SDS011;54311;51.726;5.154;2022-12-18T05:38:06;44.63;;;27.83;;
67442;SDS011;54311;51.726;5.154;2022-12-18T05:40:31;37.35;;;25.55;;
67442;SDS011;54311;51.726;5.154;2022-12-18T05:42:57;42.00;;;27.00;;
67442;SDS011;54311;51.726;5.154;2022-12-18T05:45:22;36.85;;;26.15;;
67442;SDS011;54311;51.726;5.154;2022-12-18T05:47:47;36.17;;;26.95;;
67442;SDS011;54311;51.726;5.154;2022-12-18T05:50:13;38.33;;;26.05;;
67442;SDS011;54311;51.726;5.154;2022-12-18T05:52:38;37.80;;;25.10;;
67442;SDS011;54311;51.726;5.154;2022-12-18T05:55:04;37.60;;;26.77;;
67442;SDS011;54311;51.726;5.154;2022-12-18T05:57:29;39.20;;;25.48;;
67442;SDS011;54311;51.726;5.154;2022-12-18T05:59:55;35.63;;;24.40;;
67442;SDS011;54311;51.726;5.154;2022-12-18T06:02:20;36.97;;;26.27;;
67442;SDS011;54311;51.726;5.154;2022-12-18T06:04:46;38.50;;;25.98;;
67442;SDS011;54311;51.726;5.154;2022-12-18T06:07:11;34.33;;;25.80;;
67442;SDS011;54311;51.726;5.154;2022-12-18T06:09:37;41.83;;;25.45;;
67442;SDS011;54311;51.726;5.154;2022-12-18T06:12:02;37.25;;;23.85;;
67442;SDS011;54311;51.726;5.154;2022-12-18T06:14:28;36.05;;;24.63;;
67442;SDS011;54311;51.726;5.154;2022-12-18T06:16:53;36.75;;;25.73;;
67442;SDS011;54311;51.726;5.154;2022-12-18T06:19:18;34.72;;;24.35;;
67442;SDS011;54311;51.726;5.154;2022-12-18T06:21:44;32.88;;;23.95;;
67442;SDS011;54311;51.726;5.154;2022-12-18T06:24:09;31.48;;;23.33;;
67442;SDS011;54311;51.726;5.154;2022-12-18T06:26:36;37.90;;;25.77;;
67442;SDS011;54311;51.726;5.154;2022-12-18T06:29:02;37.85;;;26.27;;
67442;SDS011;54311;51.726;5.154;2022-12-18T06:31:27;36.42;;;25.10;;
67442;SDS011;54311;51.726;5.154;2022-12-18T06:33:53;34.70;;;24.52;;
67442;SDS011;54311;51.726;5.154;2022-12-18T06:36:18;40.08;;;25.50;;
67442;SDS011;54311;51.726;5.154;2022-12-18T06:38:44;35.63;;;23.92;;
67442;SDS011;54311;51.726;5.154;2022-12-18T06:41:11;30.73;;;24.17;;
67442;SDS011;54311;51.726;5.154;2022-12-18T06:43:41;32.28;;;23.83;;
67442;SDS011;54311;51.726;5.154;2022-12-18T06:46:07;36.13;;;24.63;;
67442;SDS011;54311;51.726;5.154;2022-12-18T06:48:32;44.10;;;24.60;;
67442;SDS011;54311;51.726;5.154;2022-12-18T06:50:58;31.92;;;23.98;;
67442;SDS011;54311;51.726;5.154;2022-12-18T06:53:23;33.42;;;25.13;;
67442;SDS011;54311;51.726;5.154;2022-12-18T06:55:48;33.67;;;25.52;;
67442;SDS011;54311;51.726;5.154;2022-12-18T06:58:14;31.73;;;23.00;;
67442;SDS011;54311;51.726;5.154;2022-12-18T07:00:39;30.60;;;24.23;;
67442;SDS011;54311;51.726;5.154;2022-12-18T07:03:05;34.97;;;24.60;;
67442;SDS011;54311;51.726;5.154;2022-12-18T07:05:30;33.13;;;24.60;;
67442;SDS011;54311;51.726;5.154;2022-12-18T07:07:56;32.20;;;22.63;;
67442;SDS011;54311;51.726;5.154;2022-12-18T07:10:21;32.75;;;25.50;;
67442;SDS011;54311;51.726;5.154;2022-12-18T07:12:46;36.40;;;23.40;;
67442;SDS011;54311;51.726;5.154;2022-12-18T07:15:12;31.42;;;22.08;;
67442;SDS011;54311;51.726;5.154;2022-12-18T07:17:37;32.90;;;23.55;;
67442;SDS011;54311;51.726;5.154;2022-12-18T07:20:02;37.40;;;24.02;;
67442;SDS011;54311;51.726;5.154;2022-12-18T07:22:28;33.58;;;25.05;;
67442;SDS011;54311;51.726;5.154;2022-12-18T07:24:53;37.33;;;24.45;;
67442;SDS011;54311;51.726;5.154;2022-12-18T07:27:20;33.53;;;23.10;;
67442;SDS011;54311;51.726;5.154;2022-12-18T07:29:46;36.33;;;25.40;;
67442;SDS011;54311;51.726;5.154;2022-12-18T07:32:11;34.55;;;23.83;;
67442;SDS011;54311;51.726;5.154;2022-12-18T07:34:36;34.33;;;22.77;;
67442;SDS011;54311;51.726;5.154;2022-12-18T07:37:02;33.47;;;24.15;;
67442;SDS011;54311;51.726;5.154;2022-12-18T07:39:27;33.40;;;23.38;;
67442;SDS011;54311;51.726;5.154;2022-12-18T07:41:52;33.78;;;24.17;;
67442;SDS011;54311;51.726;5.154;2022-12-18T07:44:36;32.70;;;23.27;;
67442;SDS011;54311;51.726;5.154;2022-12-18T07:47:02;33.00;;;24.20;;
67442;SDS011;54311;51.726;5.154;2022-12-18T07:49:27;31.83;;;24.30;;
67442;SDS011;54311;51.726;5.154;2022-12-18T07:51:54;35.25;;;24.48;;
67442;SDS011;54311;51.726;5.154;2022-12-18T07:54:20;31.48;;;24.20;;
67442;SDS011;54311;51.726;5.154;2022-12-18T07:56:45;33.70;;;23.92;;
67442;SDS011;54311;51.726;5.154;2022-12-18T07:59:10;33.05;;;24.73;;
67442;SDS011;54311;51.726;5.154;2022-12-18T08:01:36;36.78;;;25.35;;
67442;SDS011;54311;51.726;5.154;2022-12-18T08:04:01;30.48;;;24.02;;
67442;SDS011;54311;51.726;5.154;2022-12-18T08:06:26;32.65;;;24.33;;
67442;SDS011;54311;51.726;5.154;2022-12-18T08:08:52;33.65;;;25.27;;
67442;SDS011;54311;51.726;5.154;2022-12-18T08:11:18;35.28;;;25.92;;
67442;SDS011;54311;51.726;5.154;2022-12-18T08:13:43;29.33;;;22.13;;
67442;SDS011;54311;51.726;5.154;2022-12-18T08:16:09;34.90;;;26.45;;
67442;SDS011;54311;51.726;5.154;2022-12-18T08:18:35;34.78;;;25.70;;
67442;SDS011;54311;51.726;5.154;2022-12-18T08:21:08;34.10;;;25.13;;
67442;SDS011;54311;51.726;5.154;2022-12-18T08:23:44;38.13;;;25.98;;
67442;SDS011;54311;51.726;5.154;2022-12-18T08:26:12;36.75;;;24.05;;
67442;SDS011;54311;51.726;5.154;2022-12-18T08:28:38;37.10;;;25.73;;
67442;SDS011;54311;51.726;5.154;2022-12-18T08:31:05;35.13;;;24.73;;
67442;SDS011;54311;51.726;5.154;2022-12-18T08:33:31;32.58;;;25.63;;
67442;SDS011;54311;51.726;5.154;2022-12-18T08:35:57;33.88;;;25.55;;
67442;SDS011;54311;51.726;5.154;2022-12-18T08:38:23;34.97;;;26.23;;
67442;SDS011;54311;51.726;5.154;2022-12-18T08:40:48;33.60;;;26.02;;
67442;SDS011;54311;51.726;5.154;2022-12-18T08:43:14;37.70;;;27.55;;
67442;SDS011;54311;51.726;5.154;2022-12-18T08:45:58;36.20;;;25.70;;
67442;SDS011;54311;51.726;5.154;2022-12-18T08:48:23;43.88;;;30.45;;
67442;SDS011;54311;51.726;5.154;2022-12-18T08:50:58;36.40;;;25.63;;
67442;SDS011;54311;51.726;5.154;2022-12-18T08:53:24;36.92;;;26.50;;
67442;SDS011;54311;51.726;5.154;2022-12-18T08:55:50;46.38;;;26.15;;
67442;SDS011;54311;51.726;5.154;2022-12-18T08:58:16;35.42;;;27.05;;
67442;SDS011;54311;51.726;5.154;2022-12-18T09:00:41;38.63;;;28.23;;
67442;SDS011;54311;51.726;5.154;2022-12-18T09:03:17;35.72;;;27.38;;
67442;SDS011;54311;51.726;5.154;2022-12-18T09:05:43;34.20;;;26.25;;
67442;SDS011;54311;51.726;5.154;2022-12-18T09:08:10;38.60;;;25.95;;
67442;SDS011;54311;51.726;5.154;2022-12-18T09:10:41;36.45;;;26.73;;
67442;SDS011;54311;51.726;5.154;2022-12-18T09:13:07;35.08;;;25.88;;
67442;SDS011;54311;51.726;5.154;2022-12-18T09:15:33;36.58;;;25.45;;
67442;SDS011;54311;51.726;5.154;2022-12-18T09:17:58;37.83;;;25.35;;
67442;SDS011;54311;51.726;5.154;2022-12-18T09:20:23;37.17;;;26.40;;
67442;SDS011;54311;51.726;5.154;2022-12-18T09:22:49;34.67;;;26.40;;
67442;SDS011;54311;51.726;5.154;2022-12-18T09:25:14;39.80;;;28.17;;
67442;SDS011;54311;51.726;5.154;2022-12-18T09:27:40;35.22;;;27.55;;
67442;SDS011;54311;51.726;5.154;2022-12-18T09:30:05;36.90;;;26.85;;
67442;SDS011;54311;51.726;5.154;2022-12-18T09:32:31;38.90;;;27.70;;
67442;SDS011;54311;51.726;5.154;2022-12-18T09:34:56;39.65;;;28.08;;
67442;SDS011;54311;51.726;5.154;2022-12-18T09:37:22;38.38;;;27.42;;
67442;SDS011;54311;51.726;5.154;2022-12-18T09:39:47;39.78;;;28.23;;
67442;SDS011;54311;51.726;5.154;2022-12-18T09:42:16;43.33;;;28.10;;
67442;SDS011;54311;51.726;5.154;2022-12-18T09:44:45;39.35;;;28.35;;
67442;SDS011;54311;51.726;5.154;2022-12-18T09:47:27;41.35;;;28.38;;
67442;SDS011;54311;51.726;5.154;2022-12-18T09:50:02;38.17;;;29.33;;
67442;SDS011;54311;51.726;5.154;2022-12-18T09:52:31;41.75;;;29.05;;
67442;SDS011;54311;51.726;5.154;2022-12-18T09:55:00;32.53;;;25.90;;
67442;SDS011;54311;51.726;5.154;2022-12-18T09:57:30;45.65;;;31.90;;
67442;SDS011;54311;51.726;5.154;2022-12-18T10:00:19;110.78;;;77.85;;
67442;SDS011;54311;51.726;5.154;2022-12-18T10:02:44;76.05;;;60.30;;
67442;SDS011;54311;51.726;5.154;2022-12-18T10:05:14;98.28;;;73.78;;
67442;SDS011;54311;51.726;5.154;2022-12-18T10:10:33;62.60;;;49.67;;
67442;SDS011;54311;51.726;5.154;2022-12-18T10:15:50;86.93;;;66.30;;
67442;SDS011;54311;51.726;5.154;2022-12-18T10:21:23;112.63;;;90.03;;
67442;SDS011;54311;51.726;5.154;2022-12-18T10:26:23;147.93;;;95.70;;
67442;SDS011;54311;51.726;5.154;2022-12-18T10:28:49;170.70;;;105.88;;
67442;SDS011;54311;51.726;5.154;2022-12-18T10:31:19;104.47;;;72.55;;
67442;SDS011;54311;51.726;5.154;2022-12-18T10:33:45;209.18;;;128.60;;
67442;SDS011;54311;51.726;5.154;2022-12-18T10:36:11;154.65;;;103.57;;
67442;SDS011;54311;51.726;5.154;2022-12-18T10:38:36;215.15;;;141.10;;
67442;SDS011;54311;51.726;5.154;2022-12-18T10:41:03;193.57;;;129.70;;
67442;SDS011;54311;51.726;5.154;2022-12-18T10:46:43;106.95;;;78.82;;
67442;SDS011;54311;51.726;5.154;2022-12-18T10:49:31;58.50;;;49.65;;
67442;SDS011;54311;51.726;5.154;2022-12-18T10:52:15;81.82;;;64.68;;
67442;SDS011;54311;51.726;5.154;2022-12-18T10:54:47;149.02;;;111.25;;
67442;SDS011;54311;51.726;5.154;2022-12-18T10:57:36;148.32;;;109.72;;
67442;SDS011;54311;51.726;5.154;2022-12-18T11:02:46;209.10;;;134.45;;
67442;SDS011;54311;51.726;5.154;2022-12-18T11:07:49;264.48;;;150.07;;
67442;SDS011;54311;51.726;5.154;2022-12-18T11:10:19;171.00;;;108.20;;
67442;SDS011;54311;51.726;5.154;2022-12-18T11:12:46;100.95;;;78.97;;
67442;SDS011;54311;51.726;5.154;2022-12-18T11:15:16;151.40;;;101.43;;
67442;SDS011;54311;51.726;5.154;2022-12-18T11:17:45;84.82;;;64.28;;
67442;SDS011;54311;51.726;5.154;2022-12-18T11:22:59;60.42;;;47.50;;
67442;SDS011;54311;51.726;5.154;2022-12-18T11:25:29;44.25;;;34.75;;
67442;SDS011;54311;51.726;5.154;2022-12-18T11:30:23;46.08;;;34.25;;
67442;SDS011;54311;51.726;5.154;2022-12-18T11:33:13;52.08;;;43.85;;
67442;SDS011;54311;51.726;5.154;2022-12-18T11:35:46;58.13;;;46.10;;
67442;SDS011;54311;51.726;5.154;2022-12-18T11:41:23;51.58;;;40.28;;
67442;SDS011;54311;51.726;5.154;2022-12-18T11:44:10;40.17;;;32.40;;
67442;SDS011;54311;51.726;5.154;2022-12-18T11:46:38;41.08;;;35.30;;
67442;SDS011;54311;51.726;5.154;2022-12-18T11:49:28;37.55;;;29.77;;
67442;SDS011;54311;51.726;5.154;2022-12-18T11:51:59;54.45;;;41.45;;
67442;SDS011;54311;51.726;5.154;2022-12-18T11:54:28;58.13;;;45.83;;
67442;SDS011;54311;51.726;5.154;2022-12-18T11:57:55;99.80;;;79.03;;
67442;SDS011;54311;51.726;5.154;2022-12-18T12:05:40;73.97;;;56.22;;
67442;SDS011;54311;51.726;5.154;2022-12-18T12:08:20;62.17;;;47.92;;
67442;SDS011;54311;51.726;5.154;2022-12-18T12:19:35;60.80;;;52.17;;
67442;SDS011;54311;51.726;5.154;2022-12-18T12:21:28;51.88;;;44.33;;
67442;SDS011;54311;51.726;5.154;2022-12-18T12:31:58;41.90;;;31.42;;
67442;SDS011;54311;51.726;5.154;2022-12-18T12:34:59;42.22;;;32.97;;
67442;SDS011;54311;51.726;5.154;2022-12-18T12:37:57;59.35;;;44.10;;
67442;SDS011;54311;51.726;5.154;2022-12-18T12:40:26;54.85;;;42.15;;
67442;SDS011;54311;51.726;5.154;2022-12-18T12:43:37;44.47;;;33.05;;
67442;SDS011;54311;51.726;5.154;2022-12-18T12:46:05;37.17;;;28.73;;
67442;SDS011;54311;51.726;5.154;2022-12-18T12:48:35;70.32;;;51.17;;
67442;SDS011;54311;51.726;5.154;2022-12-18T12:51:08;46.10;;;38.42;;
67442;SDS011;54311;51.726;5.154;2022-12-18T12:53:39;48.58;;;40.72;;
67442;SDS011;54311;51.726;5.154;2022-12-18T12:56:06;55.50;;;43.15;;
67442;SDS011;54311;51.726;5.154;2022-12-18T12:58:36;42.75;;;34.03;;
67442;SDS011;54311;51.726;5.154;2022-12-18T13:06:14;56.95;;;45.72;;
67442;SDS011;54311;51.726;5.154;2022-12-18T13:08:59;72.55;;;59.60;;
67442;SDS011;54311;51.726;5.154;2022-12-18T13:14:38;181.63;;;129.38;;
67442;SDS011;54311;51.726;5.154;2022-12-18T13:17:14;123.57;;;92.57;;
67442;SDS011;54311;51.726;5.154;2022-12-18T13:19:40;84.57;;;64.38;;
67442;SDS011;54311;51.726;5.154;2022-12-18T13:22:12;109.43;;;76.85;;
67442;SDS011;54311;51.726;5.154;2022-12-18T13:24:46;41.88;;;31.92;;
67442;SDS011;54311;51.726;5.154;2022-12-18T13:35:39;36.72;;;28.50;;
67442;SDS011;54311;51.726;5.154;2022-12-18T13:43:48;44.55;;;30.20;;
67442;SDS011;54311;51.726;5.154;2022-12-18T13:46:25;37.95;;;27.83;;
67442;SDS011;54311;51.726;5.154;2022-12-18T13:48:55;41.33;;;29.08;;
67442;SDS011;54311;51.726;5.154;2022-12-18T13:51:22;35.05;;;27.10;;
67442;SDS011;54311;51.726;5.154;2022-12-18T13:53:53;36.60;;;28.13;;
67442;SDS011;54311;51.726;5.154;2022-12-18T13:56:25;39.70;;;28.50;;
67442;SDS011;54311;51.726;5.154;2022-12-18T13:59:12;44.53;;;29.52;;
67442;SDS011;54311;51.726;5.154;2022-12-18T14:01:55;38.03;;;30.38;;
67442;SDS011;54311;51.726;5.154;2022-12-18T14:04:22;37.55;;;28.50;;
67442;SDS011;54311;51.726;5.154;2022-12-18T14:07:01;35.97;;;29.00;;
67442;SDS011;54311;51.726;5.154;2022-12-18T14:09:34;39.58;;;29.17;;
67442;SDS011;54311;51.726;5.154;2022-12-18T14:12:01;38.63;;;28.35;;
67442;SDS011;54311;51.726;5.154;2022-12-18T14:14:46;40.20;;;29.77;;
67442;SDS011;54311;51.726;5.154;2022-12-18T14:17:13;38.13;;;28.67;;
67442;SDS011;54311;51.726;5.154;2022-12-18T14:19:43;39.08;;;29.23;;
67442;SDS011;54311;51.726;5.154;2022-12-18T14:22:14;40.50;;;29.63;;
67442;SDS011;54311;51.726;5.154;2022-12-18T14:24:41;36.35;;;28.40;;
67442;SDS011;54311;51.726;5.154;2022-12-18T14:27:41;44.28;;;33.15;;
67442;SDS011;54311;51.726;5.154;2022-12-18T14:30:01;59.90;;;43.97;;
67442;SDS011;54311;51.726;5.154;2022-12-18T14:32:28;65.70;;;43.85;;
67442;SDS011;54311;51.726;5.154;2022-12-18T14:34:54;59.90;;;39.58;;
67442;SDS011;54311;51.726;5.154;2022-12-18T14:37:22;53.20;;;37.22;;
67442;SDS011;54311;51.726;5.154;2022-12-18T14:39:52;44.95;;;32.90;;
67442;SDS011;54311;51.726;5.154;2022-12-18T14:42:25;43.30;;;30.98;;
67442;SDS011;54311;51.726;5.154;2022-12-18T14:45:31;40.28;;;30.95;;
67442;SDS011;54311;51.726;5.154;2022-12-18T14:47:56;41.65;;;32.97;;
67442;SDS011;54311;51.726;5.154;2022-12-18T14:50:21;42.53;;;30.83;;
67442;SDS011;54311;51.726;5.154;2022-12-18T14:52:47;38.58;;;28.63;;
67442;SDS011;54311;51.726;5.154;2022-12-18T14:55:17;41.28;;;30.48;;
67442;SDS011;54311;51.726;5.154;2022-12-18T14:57:43;35.97;;;28.13;;
67442;SDS011;54311;51.726;5.154;2022-12-18T15:00:19;38.60;;;29.13;;
67442;SDS011;54311;51.726;5.154;2022-12-18T15:02:47;43.90;;;30.50;;
67442;SDS011;54311;51.726;5.154;2022-12-18T15:05:17;40.95;;;28.48;;
67442;SDS011;54311;51.726;5.154;2022-12-18T15:07:56;41.42;;;29.67;;
67442;SDS011;54311;51.726;5.154;2022-12-18T15:10:23;40.55;;;29.85;;
67442;SDS011;54311;51.726;5.154;2022-12-18T15:18:10;40.80;;;28.33;;
67442;SDS011;54311;51.726;5.154;2022-12-18T15:20:48;41.05;;;29.70;;
67442;SDS011;54311;51.726;5.154;2022-12-18T15:25:56;36.03;;;26.90;;
67442;SDS011;54311;51.726;5.154;2022-12-18T15:33:37;39.40;;;29.47;;
67442;SDS011;54311;51.726;5.154;2022-12-18T15:36:04;37.42;;;27.98;;
67442;SDS011;54311;51.726;5.154;2022-12-18T15:38:35;40.47;;;27.25;;
67442;SDS011;54311;51.726;5.154;2022-12-18T15:41:00;38.38;;;29.67;;
67442;SDS011;54311;51.726;5.154;2022-12-18T15:43:29;33.72;;;26.30;;
67442;SDS011;54311;51.726;5.154;2022-12-18T15:48:52;38.05;;;27.20;;
67442;SDS011;54311;51.726;5.154;2022-12-18T15:53:52;42.53;;;28.17;;
67442;SDS011;54311;51.726;5.154;2022-12-18T15:56:19;39.22;;;30.58;;
67442;SDS011;54311;51.726;5.154;2022-12-18T15:59:07;44.60;;;31.25;;
67442;SDS011;54311;51.726;5.154;2022-12-18T16:01:38;40.90;;;28.27;;
67442;SDS011;54311;51.726;5.154;2022-12-18T16:04:04;37.95;;;28.15;;
67442;SDS011;54311;51.726;5.154;2022-12-18T16:06:29;36.63;;;29.23;;
67442;SDS011;54311;51.726;5.154;2022-12-18T16:08:54;40.28;;;29.23;;
67442;SDS011;54311;51.726;5.154;2022-12-18T16:11:21;39.75;;;29.67;;
67442;SDS011;54311;51.726;5.154;2022-12-18T16:14:22;45.20;;;30.40;;
67442;SDS011;54311;51.726;5.154;2022-12-18T16:16:52;35.75;;;27.30;;
67442;SDS011;54311;51.726;5.154;2022-12-18T16:19:19;43.05;;;28.80;;
67442;SDS011;54311;51.726;5.154;2022-12-18T16:21:46;36.60;;;28.55;;
67442;SDS011;54311;51.726;5.154;2022-12-18T16:24:15;39.00;;;27.02;;
67442;SDS011;54311;51.726;5.154;2022-12-18T16:26:46;34.67;;;26.98;;
67442;SDS011;54311;51.726;5.154;2022-12-18T16:29:12;42.78;;;29.40;;
67442;SDS011;54311;51.726;5.154;2022-12-18T16:31:38;39.92;;;29.52;;
67442;SDS011;54311;51.726;5.154;2022-12-18T16:34:19;40.75;;;28.23;;
67442;SDS011;54311;51.726;5.154;2022-12-18T16:36:55;38.60;;;27.60;;